Time;durP1;ratioP1;P1;durP2;ratioP2;P2;SDS_P1;SDS_P2;PMS_P1;PMS_P2;Temp;Humidity;BMP_temperature;BMP_pressure;BME280_temperature;BME280_humidity;BME280_pressure;Samples;Min_cycle;Max_cycle;Signal;HPM_P1;HPM_P2
2020/12/30 00:00:22;;;;;;;29.47;22.33;;;;;;;;;;2084720;28;20582;-58
2020/12/30 00:01:23;;;;;;;32.90;22.23;;;;;;;;;;2080988;28;20184;-57
2020/12/30 00:02:23;;;;;;;29.73;20.67;;;;;;;;;;2081933;28;20192;-57
2020/12/30 00:03:23;;;;;;;33.53;22.23;;;;;;;;;;2088776;28;20190;-59
2020/12/30 00:04:23;;;;;;;31.13;21.87;;;;;;;;;;2096706;28;20179;-58
2020/12/30 00:05:24;;;;;;;31.90;21.23;;;;;;;;;;2083137;28;20192;-58
2020/12/30 00:06:24;;;;;;;33.00;21.97;;;;;;;;;;2080565;28;20200;-56
2020/12/30 00:07:25;;;;;;;34.90;22.80;;;;;;;;;;2087529;28;20184;-54
2020/12/30 00:08:25;;;;;;;28.00;18.83;;;;;;;;;;2089464;28;20187;-57
2020/12/30 00:09:25;;;;;;;29.53;21.13;;;;;;;;;;2078680;28;20664;-57
2020/12/30 00:10:26;;;;;;;30.17;22.10;;;;;;;;;;2090416;28;20258;-56
2020/12/30 00:11:26;;;;;;;29.20;20.63;;;;;;;;;;2098494;28;20201;-54
2020/12/30 00:12:28;;;;;;;23.60;16.00;;;;;;;;;;2097280;28;20174;-55
2020/12/30 00:13:28;;;;;;;29.80;19.50;;;;;;;;;;2085855;28;20221;-54
2020/12/30 00:14:28;;;;;;;33.27;20.20;;;;;;;;;;2088914;28;20195;-57
2020/12/30 00:15:29;;;;;;;21.33;16.23;;;;;;;;;;2096356;28;20658;-56
2020/12/30 00:16:29;;;;;;;30.73;20.73;;;;;;;;;;2096180;28;20215;-57
2020/12/30 00:17:29;;;;;;;28.83;20.37;;;;;;;;;;2086744;28;20183;-54
2020/12/30 00:18:29;;;;;;;28.50;20.07;;;;;;;;;;2088581;28;20558;-58
2020/12/30 00:19:30;;;;;;;25.73;19.57;;;;;;;;;;2080642;28;20586;-57
2020/12/30 00:20:30;;;;;;;29.17;20.53;;;;;;;;;;2085623;28;20171;-56
2020/12/30 00:21:30;;;;;;;27.87;20.23;;;;;;;;;;2079853;28;20644;-54
2020/12/30 00:22:31;;;;;;;28.00;19.70;;;;;;;;;;2072417;28;20242;-55
2020/12/30 00:23:31;;;;;;;29.87;21.73;;;;;;;;;;2084489;28;20183;-57
2020/12/30 00:24:32;;;;;;;28.50;19.00;;;;;;;;;;2097177;28;20182;-57
2020/12/30 00:25:32;;;;;;;30.33;20.17;;;;;;;;;;2089498;28;20179;-56
2020/12/30 00:26:32;;;;;;;31.87;20.77;;;;;;;;;;2090094;28;20190;-56
2020/12/30 00:27:33;;;;;;;28.93;19.67;;;;;;;;;;2087866;28;20238;-56
2020/12/30 00:28:33;;;;;;;29.77;19.83;;;;;;;;;;2082675;28;20188;-55
2020/12/30 00:29:33;;;;;;;26.70;19.93;;;;;;;;;;2086449;28;20180;-58
2020/12/30 00:30:34;;;;;;;30.23;20.07;;;;;;;;;;2089093;28;20175;-58
2020/12/30 00:31:34;;;;;;;30.77;20.93;;;;;;;;;;2086905;28;20176;-58
2020/12/30 00:32:34;;;;;;;26.90;18.70;;;;;;;;;;2081955;28;20691;-59
2020/12/30 00:33:34;;;;;;;28.17;19.80;;;;;;;;;;2081854;28;20176;-54
2020/12/30 00:34:35;;;;;;;27.87;20.40;;;;;;;;;;2089752;28;20561;-57
2020/12/30 00:35:35;;;;;;;27.20;19.80;;;;;;;;;;2089809;28;20186;-59
2020/12/30 00:36:39;;;;;;;27.03;19.17;;;;;;;;;;2095816;28;20199;-58
2020/12/30 00:37:39;;;;;;;26.73;18.07;;;;;;;;;;2087096;28;20233;-57
2020/12/30 00:38:42;;;;;;;27.80;19.43;;;;;;;;;;2090503;28;20778;-58
2020/12/30 00:39:42;;;;;;;26.53;17.93;;;;;;;;;;2096372;28;20236;-56
2020/12/30 00:40:42;;;;;;;32.30;20.50;;;;;;;;;;2096391;28;20534;-56
2020/12/30 00:41:43;;;;;;;28.90;19.17;;;;;;;;;;2098573;28;20175;-58
2020/12/30 00:42:43;;;;;;;25.63;18.80;;;;;;;;;;2095064;28;20720;-57
2020/12/30 00:43:43;;;;;;;28.93;18.87;;;;;;;;;;2089232;28;20197;-58
2020/12/30 00:44:44;;;;;;;28.03;20.00;;;;;;;;;;2090042;28;20215;-55
2020/12/30 00:45:44;;;;;;;25.97;18.67;;;;;;;;;;2088834;28;20293;-57
2020/12/30 00:46:44;;;;;;;25.97;18.50;;;;;;;;;;2088250;28;20612;-56
2020/12/30 00:47:44;;;;;;;25.53;17.53;;;;;;;;;;2096522;28;20182;-57
2020/12/30 00:48:45;;;;;;;26.53;18.37;;;;;;;;;;2090403;28;20179;-59
2020/12/30 00:49:45;;;;;;;27.37;18.50;;;;;;;;;;2080176;28;20238;-57
2020/12/30 00:50:45;;;;;;;30.50;18.33;;;;;;;;;;2080500;28;20193;-58
2020/12/30 00:51:53;;;;;;;25.63;19.63;;;;;;;;;;2095960;28;20202;-55
2020/12/30 00:52:53;;;;;;;25.10;18.40;;;;;;;;;;2089916;28;20687;-58
2020/12/30 00:53:54;;;;;;;26.27;17.63;;;;;;;;;;2082433;28;20195;-55
2020/12/30 00:54:55;;;;;;;33.03;19.10;;;;;;;;;;2072032;28;20209;-57
2020/12/30 00:56:06;;;;;;;24.40;18.53;;;;;;;;;;2080556;28;20200;-54
2020/12/30 00:57:06;;;;;;;26.20;18.13;;;;;;;;;;2081988;28;20176;-55
2020/12/30 00:58:08;;;;;;;24.90;17.00;;;;;;;;;;2078987;28;20228;-58
2020/12/30 00:59:09;;;;;;;23.93;18.43;;;;;;;;;;2080233;28;20306;-57
2020/12/30 01:00:09;;;;;;;26.50;20.17;;;;;;;;;;2078644;28;20176;-56
2020/12/30 01:01:29;;;;;;;26.87;19.07;;;;;;;;;;2059756;28;20201;-57
2020/12/30 01:02:48;;;;;;;24.80;17.80;;;;;;;;;;2088582;28;20182;-58
2020/12/30 01:03:49;;;;;;;28.80;19.07;;;;;;;;;;2084098;28;20188;-55
2020/12/30 01:04:49;;;;;;;26.50;18.57;;;;;;;;;;2089942;28;20266;-58
2020/12/30 01:05:49;;;;;;;26.57;19.70;;;;;;;;;;2090306;28;20556;-58
2020/12/30 01:06:50;;;;;;;27.07;20.93;;;;;;;;;;2088929;28;20275;-55
2020/12/30 01:07:50;;;;;;;27.97;19.53;;;;;;;;;;2087327;28;20185;-54
2020/12/30 01:08:51;;;;;;;28.00;20.50;;;;;;;;;;2074139;28;20191;-55
2020/12/30 01:09:51;;;;;;;27.67;20.53;;;;;;;;;;2073789;28;20215;-58
2020/12/30 01:10:51;;;;;;;27.10;19.13;;;;;;;;;;2086259;28;20206;-53
2020/12/30 01:11:52;;;;;;;27.13;19.37;;;;;;;;;;2089601;28;20732;-55
2020/12/30 01:12:52;;;;;;;20.43;14.87;;;;;;;;;;2090536;28;20175;-55
2020/12/30 01:13:53;;;;;;;24.63;18.57;;;;;;;;;;2097270;28;20733;-59
2020/12/30 01:14:53;;;;;;;24.70;19.07;;;;;;;;;;2086846;28;20168;-57
2020/12/30 01:15:54;;;;;;;30.43;20.63;;;;;;;;;;2087463;28;20183;-58
2020/12/30 01:16:54;;;;;;;27.13;20.03;;;;;;;;;;2097208;28;20179;-59
2020/12/30 01:17:54;;;;;;;25.30;18.80;;;;;;;;;;2089952;28;20179;-57
2020/12/30 01:18:55;;;;;;;28.10;19.40;;;;;;;;;;2082133;28;20660;-59
2020/12/30 01:19:55;;;;;;;21.13;14.87;;;;;;;;;;2090166;28;20187;-57
2020/12/30 01:21:02;;;;;;;27.57;19.73;;;;;;;;;;2089950;28;20179;-58
2020/12/30 01:22:02;;;;;;;30.93;19.67;;;;;;;;;;2079606;28;20200;-57
2020/12/30 01:23:02;;;;;;;26.33;20.03;;;;;;;;;;2073937;28;20181;-56
2020/12/30 01:24:03;;;;;;;26.50;20.50;;;;;;;;;;2086384;28;20176;-58
2020/12/30 01:25:03;;;;;;;25.40;19.80;;;;;;;;;;2086064;28;20188;-57
2020/12/30 01:26:03;;;;;;;28.17;20.07;;;;;;;;;;2087532;28;20208;-57
2020/12/30 01:27:04;;;;;;;30.20;20.47;;;;;;;;;;2094969;28;20207;-55
2020/12/30 01:28:04;;;;;;;31.57;20.20;;;;;;;;;;2087088;28;20680;-54
2020/12/30 01:29:04;;;;;;;29.03;20.90;;;;;;;;;;2087513;28;20186;-56
2020/12/30 01:30:05;;;;;;;27.70;20.37;;;;;;;;;;2079411;28;20188;-56
2020/12/30 01:31:05;;;;;;;28.57;19.67;;;;;;;;;;2065858;28;20276;-56
2020/12/30 01:32:05;;;;;;;26.67;20.43;;;;;;;;;;2080811;28;20691;-58
2020/12/30 01:33:06;;;;;;;29.93;20.70;;;;;;;;;;2095179;28;20184;-57
2020/12/30 01:34:06;;;;;;;35.13;20.40;;;;;;;;;;2097257;28;20201;-58
2020/12/30 01:35:06;;;;;;;25.50;16.60;;;;;;;;;;2097390;28;20193;-58
2020/12/30 01:36:07;;;;;;;29.83;19.83;;;;;;;;;;2089530;28;20191;-58
2020/12/30 01:37:07;;;;;;;26.10;18.83;;;;;;;;;;2080037;28;20185;-54
2020/12/30 01:38:07;;;;;;;25.43;18.23;;;;;;;;;;2086723;28;20188;-58
2020/12/30 01:39:08;;;;;;;25.87;19.50;;;;;;;;;;2092154;28;20199;-54
2020/12/30 01:40:08;;;;;;;28.13;19.60;;;;;;;;;;2090155;28;20679;-58
2020/12/30 01:41:09;;;;;;;28.20;19.50;;;;;;;;;;2088279;28;20200;-55
2020/12/30 01:42:09;;;;;;;31.23;20.27;;;;;;;;;;2081793;28;20751;-57
2020/12/30 01:43:09;;;;;;;25.53;17.33;;;;;;;;;;2082383;28;20274;-56
2020/12/30 01:44:10;;;;;;;29.97;19.90;;;;;;;;;;2092168;28;20655;-58
2020/12/30 01:45:10;;;;;;;23.23;18.67;;;;;;;;;;2092295;28;20179;-54
2020/12/30 01:46:11;;;;;;;27.07;20.13;;;;;;;;;;2097930;28;20269;-55
2020/12/30 01:47:11;;;;;;;26.47;19.50;;;;;;;;;;2096999;28;20214;-57
2020/12/30 01:48:15;;;;;;;29.00;18.93;;;;;;;;;;2097046;28;20199;-58
2020/12/30 01:49:20;;;;;;;25.07;18.47;;;;;;;;;;2087439;28;20179;-57
2020/12/30 01:50:20;;;;;;;26.47;18.57;;;;;;;;;;2090442;28;20191;-58
2020/12/30 01:51:21;;;;;;;26.77;18.73;;;;;;;;;;2086018;28;20215;-57
2020/12/30 01:52:21;;;;;;;25.40;18.77;;;;;;;;;;2087780;28;20586;-58
2020/12/30 01:53:21;;;;;;;27.47;17.30;;;;;;;;;;2096019;28;20179;-55
2020/12/30 01:54:22;;;;;;;28.13;20.00;;;;;;;;;;2097796;28;20198;-57
2020/12/30 01:55:24;;;;;;;30.23;19.30;;;;;;;;;;2089014;28;20187;-58
2020/12/30 01:56:27;;;;;;;28.10;20.17;;;;;;;;;;2083883;28;20275;-57
2020/12/30 01:57:31;;;;;;;21.17;16.83;;;;;;;;;;2076031;28;20700;-57
2020/12/30 01:58:31;;;;;;;27.50;18.90;;;;;;;;;;2083658;28;20706;-58
2020/12/30 01:59:31;;;;;;;25.07;17.77;;;;;;;;;;2089366;28;20184;-57
2020/12/30 02:00:32;;;;;;;30.50;18.87;;;;;;;;;;2073230;28;20183;-55
2020/12/30 02:01:34;;;;;;;29.30;19.87;;;;;;;;;;2081438;28;20223;-57
2020/12/30 02:02:34;;;;;;;28.37;19.43;;;;;;;;;;2097127;28;20179;-54
2020/12/30 02:03:35;;;;;;;31.23;20.17;;;;;;;;;;2097842;28;20403;-57
2020/12/30 02:04:41;;;;;;;25.50;19.60;;;;;;;;;;2097041;28;20187;-58
2020/12/30 02:05:42;;;;;;;29.60;19.63;;;;;;;;;;2085830;28;20180;-58
2020/12/30 02:06:42;;;;;;;26.40;19.43;;;;;;;;;;2082042;28;20176;-57
2020/12/30 02:07:43;;;;;;;26.27;19.70;;;;;;;;;;2084514;28;20228;-57
2020/12/30 02:08:43;;;;;;;27.20;19.83;;;;;;;;;;2089713;28;20258;-58
2020/12/30 02:09:44;;;;;;;31.50;20.47;;;;;;;;;;2089480;28;20191;-54
2020/12/30 02:10:44;;;;;;;26.47;19.90;;;;;;;;;;2085759;28;20179;-57
2020/12/30 02:11:47;;;;;;;30.23;20.23;;;;;;;;;;2089735;28;20255;-59
2020/12/30 02:12:49;;;;;;;31.53;20.93;;;;;;;;;;2098598;28;20179;-56
2020/12/30 02:13:58;;;;;;;27.20;19.83;;;;;;;;;;2088978;28;20505;-58
2020/12/30 02:14:58;;;;;;;26.20;19.83;;;;;;;;;;2087511;28;20176;-54
2020/12/30 02:15:59;;;;;;;27.37;19.50;;;;;;;;;;2086843;28;20206;-57
2020/12/30 02:16:59;;;;;;;27.53;20.40;;;;;;;;;;2097048;28;20181;-53
2020/12/30 02:18:00;;;;;;;25.97;20.70;;;;;;;;;;2087121;28;20183;-54
2020/12/30 02:19:00;;;;;;;27.70;20.37;;;;;;;;;;2086531;28;20183;-57
2020/12/30 02:20:01;;;;;;;28.73;20.13;;;;;;;;;;2088258;28;20233;-57
2020/12/30 02:21:01;;;;;;;26.70;20.33;;;;;;;;;;2088809;28;20213;-54
2020/12/30 02:22:02;;;;;;;26.37;19.87;;;;;;;;;;2087438;28;20258;-54
2020/12/30 02:23:04;;;;;;;34.20;21.97;;;;;;;;;;2084777;28;20223;-59
2020/12/30 02:24:05;;;;;;;31.97;20.43;;;;;;;;;;2087331;28;20226;-57
2020/12/30 02:25:05;;;;;;;26.77;19.90;;;;;;;;;;2087567;28;20711;-57
2020/12/30 02:26:06;;;;;;;31.80;21.70;;;;;;;;;;2098003;28;20218;-58
2020/12/30 02:27:06;;;;;;;29.27;20.90;;;;;;;;;;2086970;28;20184;-57
2020/12/30 02:28:06;;;;;;;26.40;19.90;;;;;;;;;;2087643;28;20538;-55
2020/12/30 02:29:06;;;;;;;30.67;20.77;;;;;;;;;;2095297;28;20211;-57
2020/12/30 02:30:07;;;;;;;30.40;20.20;;;;;;;;;;2097870;28;20182;-58
2020/12/30 02:31:07;;;;;;;30.23;20.37;;;;;;;;;;2095681;28;20244;-58
2020/12/30 02:32:07;;;;;;;30.20;19.93;;;;;;;;;;2097931;28;20266;-55
2020/12/30 02:33:08;;;;;;;31.40;19.73;;;;;;;;;;2096708;28;20179;-57
2020/12/30 02:34:08;;;;;;;25.83;18.87;;;;;;;;;;2095099;28;20257;-53
2020/12/30 02:35:09;;;;;;;30.50;22.53;;;;;;;;;;2096496;28;20521;-54
2020/12/30 02:36:09;;;;;;;33.43;22.13;;;;;;;;;;2097753;28;20217;-55
2020/12/30 02:37:09;;;;;;;31.07;23.03;;;;;;;;;;2095400;28;20627;-54
2020/12/30 02:38:09;;;;;;;29.40;20.83;;;;;;;;;;2098322;28;20187;-57
2020/12/30 02:39:10;;;;;;;28.13;21.23;;;;;;;;;;2087574;28;20315;-59
2020/12/30 02:40:10;;;;;;;30.97;20.47;;;;;;;;;;2084064;28;20180;-58
2020/12/30 02:41:10;;;;;;;30.40;19.47;;;;;;;;;;2076930;28;20554;-57
2020/12/30 02:42:11;;;;;;;27.70;20.43;;;;;;;;;;2086743;28;20305;-58
2020/12/30 02:43:14;;;;;;;27.10;20.47;;;;;;;;;;2096796;28;20202;-56
2020/12/30 02:44:14;;;;;;;31.20;20.40;;;;;;;;;;2087665;28;20251;-57
2020/12/30 02:45:14;;;;;;;33.30;21.90;;;;;;;;;;2087558;28;20245;-58
2020/12/30 02:46:15;;;;;;;29.10;20.80;;;;;;;;;;2086574;28;20286;-56
2020/12/30 02:47:15;;;;;;;31.63;21.30;;;;;;;;;;2097692;28;20592;-56
2020/12/30 02:48:15;;;;;;;29.03;20.70;;;;;;;;;;2097563;28;20178;-57
2020/12/30 02:49:15;;;;;;;27.53;20.70;;;;;;;;;;2097729;28;20663;-56
2020/12/30 02:50:16;;;;;;;30.17;21.63;;;;;;;;;;2087967;28;20662;-54
2020/12/30 02:51:16;;;;;;;28.83;21.43;;;;;;;;;;2088289;28;20664;-56
2020/12/30 02:52:16;;;;;;;30.23;21.20;;;;;;;;;;2098301;28;20171;-55
2020/12/30 02:53:16;;;;;;;29.73;20.67;;;;;;;;;;2098336;28;20557;-59
2020/12/30 02:54:16;;;;;;;27.73;21.00;;;;;;;;;;2100263;28;20307;-58
2020/12/30 02:55:17;;;;;;;32.23;21.83;;;;;;;;;;2097843;28;20269;-57
2020/12/30 02:56:17;;;;;;;32.77;21.13;;;;;;;;;;2085799;28;20199;-56
2020/12/30 02:57:18;;;;;;;29.43;20.70;;;;;;;;;;2089277;28;20190;-55
2020/12/30 02:58:18;;;;;;;28.33;21.53;;;;;;;;;;2098461;28;20198;-55
2020/12/30 02:59:18;;;;;;;30.93;21.57;;;;;;;;;;2097175;28;20296;-53
2020/12/30 03:00:19;;;;;;;30.30;20.37;;;;;;;;;;2096093;28;20237;-55
2020/12/30 03:01:19;;;;;;;31.07;20.13;;;;;;;;;;2089708;28;20175;-57
2020/12/30 03:02:19;;;;;;;33.13;21.93;;;;;;;;;;2076719;28;20622;-59
2020/12/30 03:03:20;;;;;;;33.60;22.80;;;;;;;;;;2084199;28;20267;-59
2020/12/30 03:04:20;;;;;;;31.23;21.20;;;;;;;;;;2077176;28;20180;-55
2020/12/30 03:05:20;;;;;;;30.63;21.20;;;;;;;;;;2073148;28;20184;-57
2020/12/30 03:06:24;;;;;;;27.67;20.33;;;;;;;;;;2080963;28;20209;-57
2020/12/30 03:07:24;;;;;;;32.47;21.83;;;;;;;;;;2087175;28;20270;-58
2020/12/30 03:08:25;;;;;;;30.47;23.27;;;;;;;;;;2088936;28;20202;-57
2020/12/30 03:09:25;;;;;;;34.50;23.23;;;;;;;;;;2095914;28;20186;-57
2020/12/30 03:10:25;;;;;;;34.70;23.83;;;;;;;;;;2095751;28;20175;-55
2020/12/30 03:11:26;;;;;;;32.77;23.47;;;;;;;;;;2093919;28;20179;-57
2020/12/30 03:12:26;;;;;;;32.10;23.27;;;;;;;;;;2098157;28;20179;-55
2020/12/30 03:13:27;;;;;;;33.17;22.33;;;;;;;;;;2097104;28;20232;-56
2020/12/30 03:14:27;;;;;;;32.90;22.60;;;;;;;;;;2098002;28;20202;-54
2020/12/30 03:15:27;;;;;;;30.33;20.87;;;;;;;;;;2093720;28;20595;-54
2020/12/30 03:16:28;;;;;;;31.27;21.40;;;;;;;;;;2096767;28;20249;-56
2020/12/30 03:17:28;;;;;;;33.30;22.07;;;;;;;;;;2088331;28;20258;-56
2020/12/30 03:18:28;;;;;;;27.13;21.00;;;;;;;;;;2083114;28;20617;-56
2020/12/30 03:19:28;;;;;;;28.53;20.33;;;;;;;;;;2077016;28;20250;-58
2020/12/30 03:20:29;;;;;;;29.87;23.00;;;;;;;;;;2080120;28;20659;-57
2020/12/30 03:21:29;;;;;;;29.77;22.30;;;;;;;;;;2077789;28;20263;-57
2020/12/30 03:22:29;;;;;;;34.77;23.30;;;;;;;;;;2085428;28;20167;-57
2020/12/30 03:23:29;;;;;;;33.73;22.73;;;;;;;;;;2096651;28;20270;-56
2020/12/30 03:24:30;;;;;;;29.53;20.97;;;;;;;;;;2096377;28;20179;-56
2020/12/30 03:25:30;;;;;;;29.97;21.10;;;;;;;;;;2096033;28;20549;-55
2020/12/30 03:26:32;;;;;;;33.03;21.93;;;;;;;;;;2096358;28;20542;-54
2020/12/30 03:27:32;;;;;;;28.90;21.93;;;;;;;;;;2091817;28;20184;-54
2020/12/30 03:28:32;;;;;;;33.53;22.33;;;;;;;;;;2085354;28;20631;-56
2020/12/30 03:29:33;;;;;;;32.17;21.43;;;;;;;;;;2089468;28;20183;-57
2020/12/30 03:30:33;;;;;;;28.57;21.67;;;;;;;;;;2097065;28;20661;-58
2020/12/30 03:31:33;;;;;;;33.27;22.30;;;;;;;;;;2093762;28;20267;-57
2020/12/30 03:32:34;;;;;;;31.03;21.13;;;;;;;;;;2083506;28;20181;-58
2020/12/30 03:33:34;;;;;;;30.17;20.70;;;;;;;;;;2088533;28;20884;-57
2020/12/30 03:34:34;;;;;;;30.73;21.77;;;;;;;;;;2094917;28;20229;-56
2020/12/30 03:35:35;;;;;;;32.50;23.43;;;;;;;;;;2095487;28;20177;-56
2020/12/30 03:36:36;;;;;;;33.20;22.87;;;;;;;;;;2094589;28;20277;-54
2020/12/30 03:37:36;;;;;;;32.17;22.80;;;;;;;;;;2093670;28;20621;-54
2020/12/30 03:38:36;;;;;;;29.13;20.83;;;;;;;;;;2094452;28;20542;-58
2020/12/30 03:39:36;;;;;;;34.53;23.50;;;;;;;;;;2095699;28;20809;-58
2020/12/30 03:40:36;;;;;;;33.23;22.20;;;;;;;;;;2096475;28;20178;-54
2020/12/30 03:41:37;;;;;;;32.70;22.93;;;;;;;;;;2097987;28;20200;-56
2020/12/30 03:42:37;;;;;;;35.33;22.43;;;;;;;;;;2097465;28;20197;-57
2020/12/30 03:43:37;;;;;;;36.67;23.87;;;;;;;;;;2095319;28;20553;-55
2020/12/30 03:44:37;;;;;;;34.83;23.60;;;;;;;;;;2095819;28;20206;-57
2020/12/30 03:45:38;;;;;;;33.00;24.03;;;;;;;;;;2096099;28;20175;-57
2020/12/30 03:46:38;;;;;;;38.47;26.27;;;;;;;;;;2095412;28;20200;-56
2020/12/30 03:47:38;;;;;;;38.07;25.83;;;;;;;;;;2095838;28;20171;-58
2020/12/30 03:48:39;;;;;;;36.77;25.60;;;;;;;;;;2096755;28;20245;-57
2020/12/30 03:49:39;;;;;;;41.13;26.40;;;;;;;;;;2084887;28;20707;-57
2020/12/30 03:50:39;;;;;;;41.43;27.30;;;;;;;;;;2076290;28;20172;-57
2020/12/30 03:51:39;;;;;;;41.37;25.40;;;;;;;;;;2072720;28;20181;-57
2020/12/30 03:52:40;;;;;;;44.77;27.40;;;;;;;;;;2072202;28;20753;-56
2020/12/30 03:53:40;;;;;;;43.20;26.73;;;;;;;;;;2084942;28;20168;-57
2020/12/30 03:54:40;;;;;;;41.73;27.53;;;;;;;;;;2090596;28;20175;-57
2020/12/30 03:55:41;;;;;;;44.43;27.73;;;;;;;;;;2086393;28;20180;-53
2020/12/30 03:56:41;;;;;;;42.40;28.00;;;;;;;;;;2086965;28;20789;-58
2020/12/30 03:57:41;;;;;;;47.30;28.77;;;;;;;;;;2093382;28;20259;-59
2020/12/30 03:58:41;;;;;;;44.90;28.27;;;;;;;;;;2083984;28;20219;-58
2020/12/30 03:59:42;;;;;;;48.13;29.23;;;;;;;;;;2079626;28;20207;-59
2020/12/30 04:00:42;;;;;;;45.93;28.87;;;;;;;;;;2087452;28;20172;-58
2020/12/30 04:01:42;;;;;;;41.23;25.57;;;;;;;;;;2086282;28;20203;-54
2020/12/30 04:02:42;;;;;;;42.47;26.60;;;;;;;;;;2082988;28;20199;-59
2020/12/30 04:03:43;;;;;;;45.57;28.43;;;;;;;;;;2088285;28;20171;-59
2020/12/30 04:04:43;;;;;;;47.43;27.47;;;;;;;;;;2088969;28;21091;-56
2020/12/30 04:05:43;;;;;;;44.30;28.10;;;;;;;;;;2095338;28;20178;-56
2020/12/30 04:06:44;;;;;;;41.63;28.83;;;;;;;;;;2089470;28;20172;-56
2020/12/30 04:07:44;;;;;;;44.27;26.67;;;;;;;;;;2087355;28;20172;-58
2020/12/30 04:08:44;;;;;;;46.30;28.47;;;;;;;;;;2096454;28;20594;-57
2020/12/30 04:09:44;;;;;;;45.60;27.87;;;;;;;;;;2088863;28;20185;-57
2020/12/30 04:10:45;;;;;;;43.20;27.87;;;;;;;;;;2077938;28;20187;-60
2020/12/30 04:11:45;;;;;;;44.33;29.53;;;;;;;;;;2067920;28;20200;-58
2020/12/30 04:12:45;;;;;;;44.47;28.73;;;;;;;;;;2073682;28;20188;-58
2020/12/30 04:13:46;;;;;;;45.30;29.30;;;;;;;;;;2089779;28;20176;-56
2020/12/30 04:14:46;;;;;;;50.97;27.67;;;;;;;;;;2078585;28;20815;-56
2020/12/30 04:15:46;;;;;;;42.23;27.07;;;;;;;;;;2080688;28;20177;-59
2020/12/30 04:16:46;;;;;;;42.40;29.13;;;;;;;;;;2090025;28;20183;-60
2020/12/30 04:17:47;;;;;;;41.53;28.83;;;;;;;;;;2088624;28;20184;-58
2020/12/30 04:18:47;;;;;;;46.37;28.73;;;;;;;;;;2091525;28;20179;-58
2020/12/30 04:19:47;;;;;;;44.27;27.83;;;;;;;;;;2075595;28;20204;-58
2020/12/30 04:20:48;;;;;;;44.50;29.20;;;;;;;;;;2076501;28;20208;-58
2020/12/30 04:21:48;;;;;;;45.83;29.13;;;;;;;;;;2083782;28;20208;-59
2020/12/30 04:22:48;;;;;;;49.10;28.77;;;;;;;;;;2086014;28;20179;-59
2020/12/30 04:23:49;;;;;;;45.20;27.50;;;;;;;;;;2077980;28;20172;-57
2020/12/30 04:24:49;;;;;;;40.27;26.97;;;;;;;;;;2081135;28;20176;-59
2020/12/30 04:25:49;;;;;;;46.37;28.43;;;;;;;;;;2090941;28;20218;-59
2020/12/30 04:26:50;;;;;;;48.63;29.10;;;;;;;;;;2092002;28;20184;-59
2020/12/30 04:27:50;;;;;;;43.33;27.37;;;;;;;;;;2086062;28;20262;-58
2020/12/30 04:28:50;;;;;;;42.50;27.53;;;;;;;;;;2089625;28;20186;-58
2020/12/30 04:29:51;;;;;;;43.20;27.70;;;;;;;;;;2090271;28;20720;-58
2020/12/30 04:30:51;;;;;;;45.33;28.20;;;;;;;;;;2092892;28;20180;-58
2020/12/30 04:31:51;;;;;;;42.13;29.03;;;;;;;;;;2097758;28;20179;-59
2020/12/30 04:32:52;;;;;;;39.73;28.03;;;;;;;;;;2087227;28;20189;-59
2020/12/30 04:33:52;;;;;;;45.37;28.03;;;;;;;;;;2077876;28;20291;-59
2020/12/30 04:34:52;;;;;;;43.10;28.63;;;;;;;;;;2082068;28;20185;-58
2020/12/30 04:35:53;;;;;;;42.80;28.63;;;;;;;;;;2092043;28;20184;-58
2020/12/30 04:36:53;;;;;;;44.67;30.47;;;;;;;;;;2091808;28;20595;-59
2020/12/30 04:37:53;;;;;;;44.43;28.30;;;;;;;;;;2084925;28;20175;-59
2020/12/30 04:38:53;;;;;;;48.17;28.77;;;;;;;;;;2084199;28;20181;-59
2020/12/30 04:39:54;;;;;;;44.10;28.17;;;;;;;;;;2081386;28;20176;-58
2020/12/30 04:40:57;;;;;;;41.70;27.87;;;;;;;;;;2093449;28;20239;-58
2020/12/30 04:41:58;;;;;;;44.57;29.90;;;;;;;;;;2093762;28;20235;-58
2020/12/30 04:43:00;;;;;;;43.43;27.47;;;;;;;;;;2081390;28;20409;-58
2020/12/30 04:44:01;;;;;;;39.97;27.27;;;;;;;;;;2075577;28;20185;-60
2020/12/30 04:45:03;;;;;;;39.77;26.43;;;;;;;;;;2092753;28;20411;-64
2020/12/30 04:46:04;;;;;;;48.23;28.70;;;;;;;;;;2098753;28;20202;-57
2020/12/30 04:47:04;;;;;;;41.67;28.87;;;;;;;;;;2089383;28;20184;-59
2020/12/30 04:48:05;;;;;;;43.60;28.03;;;;;;;;;;2081251;28;20184;-56
2020/12/30 04:49:06;;;;;;;45.33;30.60;;;;;;;;;;2093143;28;20191;-58
2020/12/30 04:50:06;;;;;;;45.90;27.07;;;;;;;;;;2089623;28;20445;-59
2020/12/30 04:51:07;;;;;;;42.53;28.03;;;;;;;;;;2079811;28;20176;-58
2020/12/30 04:52:10;;;;;;;43.43;28.57;;;;;;;;;;2089866;28;20192;-56
2020/12/30 04:53:10;;;;;;;45.73;29.57;;;;;;;;;;2095094;28;20204;-58
2020/12/30 04:54:11;;;;;;;45.90;30.60;;;;;;;;;;2093836;28;20439;-58
2020/12/30 04:55:12;;;;;;;44.60;28.47;;;;;;;;;;2083821;28;20184;-57
2020/12/30 04:56:12;;;;;;;41.37;28.23;;;;;;;;;;2088846;28;21023;-58
2020/12/30 04:57:20;;;;;;;43.43;28.43;;;;;;;;;;2089615;28;20174;-57
2020/12/30 04:58:20;;;;;;;44.93;29.23;;;;;;;;;;2081981;28;20185;-59
2020/12/30 04:59:21;;;;;;;43.33;27.70;;;;;;;;;;2088963;28;20409;-58
2020/12/30 05:00:22;;;;;;;46.83;29.10;;;;;;;;;;2094949;28;20203;-58
2020/12/30 05:01:24;;;;;;;43.97;28.57;;;;;;;;;;2089236;28;20723;-58
2020/12/30 05:02:35;;;;;;;47.53;28.00;;;;;;;;;;2089960;28;20416;-58
2020/12/30 05:03:38;;;;;;;46.13;28.70;;;;;;;;;;2096562;28;20186;-59
2020/12/30 05:04:40;;;;;;;43.23;29.17;;;;;;;;;;2096751;28;20407;-59
2020/12/30 05:05:41;;;;;;;48.77;28.67;;;;;;;;;;2088044;28;20420;-58
2020/12/30 05:06:46;;;;;;;45.67;28.80;;;;;;;;;;2081189;28;20425;-58
2020/12/30 05:07:47;;;;;;;41.90;27.50;;;;;;;;;;2085283;28;20397;-59
2020/12/30 05:08:47;;;;;;;45.37;27.43;;;;;;;;;;2078291;28;20432;-57
2020/12/30 05:09:47;;;;;;;42.73;27.70;;;;;;;;;;2079757;28;20173;-58
2020/12/30 05:10:49;;;;;;;44.00;26.93;;;;;;;;;;2086781;28;20263;-56
2020/12/30 05:11:49;;;;;;;42.17;26.83;;;;;;;;;;2086888;28;20172;-58
2020/12/30 05:12:52;;;;;;;42.60;27.13;;;;;;;;;;2097041;28;20429;-56
2020/12/30 05:13:52;;;;;;;42.93;27.90;;;;;;;;;;2095963;28;20201;-56
2020/12/30 05:14:53;;;;;;;47.30;27.10;;;;;;;;;;2088299;28;20222;-53
2020/12/30 05:15:56;;;;;;;46.43;27.60;;;;;;;;;;2087859;28;20199;-58
2020/12/30 05:16:57;;;;;;;42.30;27.23;;;;;;;;;;2081612;28;20180;-57
2020/12/30 05:17:57;;;;;;;40.37;27.00;;;;;;;;;;2080954;28;20481;-57
2020/12/30 05:19:04;;;;;;;44.37;27.03;;;;;;;;;;2079791;28;20525;-56
2020/12/30 05:20:08;;;;;;;41.00;25.50;;;;;;;;;;2083468;28;20176;-58
2020/12/30 05:21:08;;;;;;;44.67;27.30;;;;;;;;;;2088111;28;20486;-57
2020/12/30 05:22:13;;;;;;;44.37;27.03;;;;;;;;;;2106588;23;20231;-58
2020/12/30 05:23:14;;;;;;;44.00;27.63;;;;;;;;;;2094933;28;20172;-57
2020/12/30 05:24:14;;;;;;;46.73;27.83;;;;;;;;;;2097294;28;20784;-56
2020/12/30 05:25:14;;;;;;;42.60;27.57;;;;;;;;;;2098710;28;20178;-57
2020/12/30 05:26:15;;;;;;;44.13;27.73;;;;;;;;;;2096609;28;20174;-58
2020/12/30 05:27:15;;;;;;;42.43;27.00;;;;;;;;;;2096426;28;20207;-58
2020/12/30 05:28:15;;;;;;;44.27;27.93;;;;;;;;;;2096652;28;20277;-59
2020/12/30 05:29:16;;;;;;;41.93;26.87;;;;;;;;;;2086540;28;20610;-58
2020/12/30 05:30:16;;;;;;;40.97;26.00;;;;;;;;;;2072466;28;20267;-59
2020/12/30 05:31:16;;;;;;;40.50;26.73;;;;;;;;;;2079754;28;20180;-55
2020/12/30 05:32:17;;;;;;;44.63;28.53;;;;;;;;;;2092788;28;20219;-58
2020/12/30 05:33:17;;;;;;;37.33;26.37;;;;;;;;;;2088023;28;20198;-58
2020/12/30 05:34:18;;;;;;;46.27;28.30;;;;;;;;;;2089919;28;20195;-55
2020/12/30 05:35:20;;;;;;;41.30;27.17;;;;;;;;;;2089313;28;20187;-56
2020/12/30 05:36:24;;;;;;;41.87;27.40;;;;;;;;;;2090097;28;20413;-57
2020/12/30 05:37:29;;;;;;;46.00;27.50;;;;;;;;;;2086680;28;20829;-56
2020/12/30 05:38:30;;;;;;;45.33;26.77;;;;;;;;;;2080286;28;20429;-58
2020/12/30 05:39:31;;;;;;;42.63;27.90;;;;;;;;;;2081211;28;20425;-55
2020/12/30 05:40:33;;;;;;;45.33;27.80;;;;;;;;;;2080243;28;20246;-55
2020/12/30 05:41:34;;;;;;;46.30;28.57;;;;;;;;;;2071390;28;20414;-54
2020/12/30 05:42:34;;;;;;;46.57;27.87;;;;;;;;;;2079028;28;20437;-58
2020/12/30 05:43:34;;;;;;;42.30;27.30;;;;;;;;;;2090430;28;20184;-57
2020/12/30 05:44:34;;;;;;;41.03;26.70;;;;;;;;;;2089722;28;20182;-57
2020/12/30 05:45:42;;;;;;;45.83;28.70;;;;;;;;;;2076607;28;20589;-56
2020/12/30 05:46:42;;;;;;;38.90;26.73;;;;;;;;;;2079306;28;20177;-59
2020/12/30 05:47:43;;;;;;;43.60;29.50;;;;;;;;;;2087008;28;20848;-54
2020/12/30 05:48:43;;;;;;;43.90;29.57;;;;;;;;;;2089581;28;20586;-57
2020/12/30 05:49:44;;;;;;;44.57;28.67;;;;;;;;;;2088573;28;20709;-58
2020/12/30 05:50:48;;;;;;;46.30;28.53;;;;;;;;;;2089761;28;20266;-54
2020/12/30 05:51:49;;;;;;;42.93;27.20;;;;;;;;;;2089699;28;20449;-55
2020/12/30 05:52:50;;;;;;;43.73;28.40;;;;;;;;;;2089272;28;20779;-57
2020/12/30 05:54:07;;;;;;;45.17;28.50;;;;;;;;;;2088747;28;20796;-53